| time (UTC) | temp C | wind direction | speed KPH | gust KPH | rain 1hr cm | rain 24hr cm | rain mn cm | humidity % | barometer mb |
| 20260503013056 | 18 | 100 | 1.6 | 6.4 | 0.00 | 0.00 | 0.00 | 34 | 1014.8 |
| 20260503011551 | 18 | 112 | 1.6 | 11.3 | 0.00 | 0.00 | 0.00 | 34 | 1014.8 |
| 20260503010053 | 18 | 64 | 4.8 | 11.3 | 0.00 | 0.00 | 0.00 | 34 | 1015.1 |
| 20260503004552 | 18 | 44 | 0.0 | 4.8 | 0.00 | 0.00 | 0.00 | 33 | 1015.1 |
| 20260503003106 | 18 | 355 | 0.0 | 4.8 | 0.00 | 0.00 | 0.00 | 33 | 1015.2 |
| 20260503001549 | 19 | 323 | 1.6 | 6.4 | 0.00 | 0.00 | 0.00 | 33 | 1015.4 |
| 20260503000054 | 19 | 302 | 4.8 | 9.7 | 0.00 | 0.00 | 0.00 | 32 | 1015.5 |
| 20260502234554 | 18 | 138 | 6.4 | 14.5 | 0.00 | 0.00 | 0.00 | 33 | 1015.5 |
| 20260502233054 | 19 | 81 | 6.4 | 14.5 | 0.00 | 0.00 | 0.00 | 32 | 1015.8 |
| 20260502231605 | 19 | 114 | 3.2 | 11.3 | 0.00 | 0.00 | 0.00 | 33 | 1016.0 |
| 20260502230058 | 18 | 116 | 3.2 | 17.7 | 0.00 | 0.00 | 0.00 | 33 | 1016.2 |
| 20260502224555 | 18 | 88 | 1.6 | 9.7 | 0.00 | 0.00 | 0.00 | 34 | 1016.2 |
| 20260502223049 | 19 | 119 | 6.4 | 8.0 | 0.00 | 0.00 | 0.00 | 33 | 1016.4 |
| 20260502221559 | 18 | 37 | 4.8 | 14.5 | 0.00 | 0.00 | 0.00 | 34 | 1016.6 |
| 20260502214555 | 18 | 349 | 6.4 | 17.7 | 0.00 | 0.00 | 0.00 | 35 | 1017.1 |
| 20260502213053 | 18 | 50 | 1.6 | 11.3 | 0.00 | 0.00 | 0.00 | 36 | 1017.4 |
| 20260502211552 | 18 | 154 | 8.0 | 19.3 | 0.00 | 0.00 | 0.00 | 35 | 1017.4 |
| 20260502210104 | 19 | 47 | 8.0 | 20.9 | 0.00 | 0.00 | 0.00 | 36 | 1017.5 |
| 20260502204555 | 18 | 57 | 9.7 | 19.3 | 0.00 | 0.00 | 0.00 | 37 | 1017.7 |
| 20260502203058 | 17 | 59 | 11.3 | 19.3 | 0.00 | 0.00 | 0.00 | 37 | 1017.9 |
| 20260502201602 | 17 | 79 | 9.7 | 20.9 | 0.00 | 0.00 | 0.00 | 37 | 1018.0 |
| 20260502200117 | 17 | 55 | 8.0 | 19.3 | 0.00 | 0.00 | 0.00 | 35 | 1018.2 |
| 20260502194619 | 18 | 41 | 4.8 | 17.7 | 0.00 | 0.00 | 0.00 | 35 | 1018.2 |
| 20260502193101 | 19 | 65 | 9.7 | 20.9 | 0.00 | 0.00 | 0.00 | 33 | 1018.4 |
| 20260502191555 | 18 | 282 | 4.8 | 17.7 | 0.00 | 0.00 | 0.00 | 36 | 1018.5 |
| 20260502190106 | 17 | 106 | 8.0 | 22.5 | 0.00 | 0.00 | 0.00 | 38 | 1018.7 |
| 20260502184558 | 17 | 89 | 8.0 | 16.1 | 0.00 | 0.00 | 0.00 | 39 | 1018.8 |
| 20260502183054 | 17 | 67 | 11.3 | 27.4 | 0.00 | 0.00 | 0.00 | 39 | 1018.9 |
| 20260502181552 | 17 | 115 | 4.8 | 16.1 | 0.00 | 0.00 | 0.00 | 38 | 1019.1 |
| 20260502180116 | 17 | 59 | 4.8 | 20.9 | 0.00 | 0.00 | 0.00 | 39 | 1019.3 |
| 20260502163057 | 16 | 71 | 9.7 | 25.7 | 0.00 | 0.00 | 0.00 | 42 | 1019.5 |
| 20260502161559 | 16 | 73 | 11.3 | 22.5 | 0.00 | 0.00 | 0.00 | 42 | 1019.5 |
| 20260502151605 | 13 | 123 | 8.0 | 12.9 | 0.00 | 0.00 | 0.00 | 45 | 1019.7 |
| 20260502130104 | 8 | 93 | 3.2 | 9.7 | 0.00 | 0.00 | 0.00 | 55 | 1018.6 |
| 20260502123101 | 7 | 89 | 4.8 | 9.7 | 0.00 | 0.00 | 0.00 | 57 | 1018.1 |
| 20260502121603 | 7 | 57 | 4.8 | 11.3 | 0.00 | 0.00 | 0.00 | 57 | 1018.0 |
| 20260502114557 | 7 | 62 | 3.2 | 8.0 | 0.00 | 0.00 | 0.00 | 54 | 1017.6 |
| 20260502113057 | 7 | 11 | 1.6 | 6.4 | 0.00 | 0.00 | 0.00 | 52 | 1017.4 |
| 20260502111556 | 7 | 24 | 3.2 | 6.4 | 0.00 | 0.00 | 0.00 | 52 | 1017.0 |
| 20260502110100 | 8 | 360 | 3.2 | 8.0 | 0.00 | 0.00 | 0.00 | 52 | 1016.9 |
| 20260502104555 | 8 | 63 | 6.4 | 12.9 | 0.00 | 0.00 | 0.00 | 50 | 1017.0 |
| 20260502103103 | 9 | 342 | 9.7 | 17.7 | 0.00 | 0.00 | 0.00 | 49 | 1016.5 |
| 20260502101611 | 8 | 344 | 3.2 | 12.9 | 0.00 | 0.00 | 0.00 | 49 | 1016.3 |
| 20260502100105 | 8 | 331 | 3.2 | 11.3 | 0.00 | 0.00 | 0.00 | 49 | 1016.3 |
| 20260502080103 | 9 | 0 | 3.2 | 6.4 | 0.00 | 0.00 | 0.00 | 43 | 1015.3 |
| 20260502070054 | 9 | 276 | 6.4 | 11.3 | 0.00 | 0.00 | 0.00 | 42 | 1015.2 |
| 20260502064552 | 9 | 271 | 4.8 | 6.4 | 0.00 | 0.00 | 0.00 | 41 | 1015.2 |
| 20260502063057 | 9 | 284 | 1.6 | 6.4 | 0.00 | 0.00 | 0.00 | 40 | 1015.4 |
| 20260502061553 | 9 | 284 | 4.8 | 9.7 | 0.00 | 0.00 | 0.00 | 40 | 1015.3 |
| 20260502060107 | 10 | 284 | 4.8 | 9.7 | 0.00 | 0.00 | 0.00 | 40 | 1015.2 |
| 20260502054551 | 10 | 272 | 6.4 | 9.7 | 0.00 | 0.00 | 0.00 | 38 | 1015.0 |
| 20260502053101 | 12 | 315 | 3.2 | 6.4 | 0.00 | 0.00 | 0.00 | 34 | 1014.9 |
| 20260502051601 | 13 | 315 | 6.4 | 14.5 | 0.00 | 0.00 | 0.00 | 33 | 1014.8 |
| 20260502050059 | 12 | 286 | 8.0 | 11.3 | 0.00 | 0.00 | 0.00 | 34 | 1014.7 |
| 20260502044553 | 12 | 294 | 6.4 | 11.3 | 0.00 | 0.00 | 0.00 | 32 | 1014.6 |
| 20260502043054 | 13 | 282 | 6.4 | 11.3 | 0.00 | 0.00 | 0.00 | 31 | 1014.5 |
| 20260502041555 | 15 | 315 | 11.3 | 16.1 | 0.00 | 0.00 | 0.00 | 27 | 1014.4 |
| 20260502040057 | 15 | 298 | 6.4 | 12.9 | 0.00 | 0.00 | 0.00 | 27 | 1014.4 |
| 20260502034554 | 15 | 286 | 6.4 | 12.9 | 0.00 | 0.00 | 0.00 | 26 | 1014.4 |
| 20260502033056 | 15 | 292 | 6.4 | 8.0 | 0.00 | 0.00 | 0.00 | 27 | 1014.3 |
| 20260502031554 | 15 | 267 | 6.4 | 11.3 | 0.00 | 0.00 | 0.00 | 26 | 1014.2 |
| 20260502030056 | 15 | 277 | 6.4 | 9.7 | 0.00 | 0.00 | 0.00 | 26 | 1013.9 |
| 20260502024558 | 16 | 286 | 8.0 | 11.3 | 0.00 | 0.00 | 0.00 | 25 | 1013.8 |
| 20260502023057 | 17 | 275 | 6.4 | 9.7 | 0.00 | 0.00 | 0.00 | 24 | 1013.6 |
| 20260502021605 | 18 | 263 | 4.8 | 9.7 | 0.00 | 0.00 | 0.00 | 24 | 1013.6 |
| 20260502020056 | 20 | 306 | 3.2 | 8.0 | 0.00 | 0.00 | 0.00 | 22 | 1013.5 |
| 20260502014558 | 21 | 311 | 4.8 | 11.3 | 0.00 | 0.00 | 0.00 | 21 | 1013.6 |